sensor_id;sensor_type;location;lat;lon;timestamp;temperature;humidity
10282;DHT22;5186;59.472;18.048;2023-04-07T00:02:06;3.30;99.90
10282;DHT22;5186;59.472;18.048;2023-04-07T00:04:32;3.30;99.90
10282;DHT22;5186;59.472;18.048;2023-04-07T00:06:57;3.30;99.90
10282;DHT22;5186;59.472;18.048;2023-04-07T00:09:23;3.30;99.90
10282;DHT22;5186;59.472;18.048;2023-04-07T00:11:48;3.20;99.90
10282;DHT22;5186;59.472;18.048;2023-04-07T00:14:16;3.20;99.90
10282;DHT22;5186;59.472;18.048;2023-04-07T00:16:42;3.20;99.90
10282;DHT22;5186;59.472;18.048;2023-04-07T00:19:07;3.20;99.90
10282;DHT22;5186;59.472;18.048;2023-04-07T00:21:33;3.10;99.90
10282;DHT22;5186;59.472;18.048;2023-04-07T00:23:58;3.10;99.90
10282;DHT22;5186;59.472;18.048;2023-04-07T00:26:24;3.10;99.90
10282;DHT22;5186;59.472;18.048;2023-04-07T00:28:56;3.10;99.90
10282;DHT22;5186;59.472;18.048;2023-04-07T00:31:21;3.20;99.90
10282;DHT22;5186;59.472;18.048;2023-04-07T00:33:47;3.10;99.90
10282;DHT22;5186;59.472;18.048;2023-04-07T00:36:13;3.10;99.90
10282;DHT22;5186;59.472;18.048;2023-04-07T00:38:39;3.20;99.90
10282;DHT22;5186;59.472;18.048;2023-04-07T00:41:05;3.20;99.90
10282;DHT22;5186;59.472;18.048;2023-04-07T00:43:31;3.10;99.90
10282;DHT22;5186;59.472;18.048;2023-04-07T00:45:56;3.10;99.90
10282;DHT22;5186;59.472;18.048;2023-04-07T00:48:22;3.20;99.90
10282;DHT22;5186;59.472;18.048;2023-04-07T00:50:48;3.10;99.90
10282;DHT22;5186;59.472;18.048;2023-04-07T00:53:14;3.10;99.90
10282;DHT22;5186;59.472;18.048;2023-04-07T00:55:40;3.10;99.90
10282;DHT22;5186;59.472;18.048;2023-04-07T00:58:05;3.10;99.90
10282;DHT22;5186;59.472;18.048;2023-04-07T01:00:36;3.10;99.90
10282;DHT22;5186;59.472;18.048;2023-04-07T01:05:41;3.10;99.90
10282;DHT22;5186;59.472;18.048;2023-04-07T01:08:20;3.10;99.90
10282;DHT22;5186;59.472;18.048;2023-04-07T01:13:48;3.10;99.90
10282;DHT22;5186;59.472;18.048;2023-04-07T01:16:22;3.10;99.90
10282;DHT22;5186;59.472;18.048;2023-04-07T01:18:51;3.10;99.90
10282;DHT22;5186;59.472;18.048;2023-04-07T01:21:18;3.10;99.90
10282;DHT22;5186;59.472;18.048;2023-04-07T01:26:38;3.10;99.90
10282;DHT22;5186;59.472;18.048;2023-04-07T01:31:42;3.10;99.90
10282;DHT22;5186;59.472;18.048;2023-04-07T01:34:09;3.10;99.90
10282;DHT22;5186;59.472;18.048;2023-04-07T01:36:36;3.10;99.90
10282;DHT22;5186;59.472;18.048;2023-04-07T01:39:02;3.10;99.90
10282;DHT22;5186;59.472;18.048;2023-04-07T01:41:28;3.10;99.90
10282;DHT22;5186;59.472;18.048;2023-04-07T01:43:55;3.10;99.90
10282;DHT22;5186;59.472;18.048;2023-04-07T01:46:21;3.10;99.90
10282;DHT22;5186;59.472;18.048;2023-04-07T01:48:47;3.00;99.90
10282;DHT22;5186;59.472;18.048;2023-04-07T01:51:13;3.10;99.90
10282;DHT22;5186;59.472;18.048;2023-04-07T01:53:47;3.00;99.90
10282;DHT22;5186;59.472;18.048;2023-04-07T01:56:13;3.10;99.90
10282;DHT22;5186;59.472;18.048;2023-04-07T01:58:39;3.10;99.90
10282;DHT22;5186;59.472;18.048;2023-04-07T02:01:05;3.10;99.90
10282;DHT22;5186;59.472;18.048;2023-04-07T02:03:56;3.00;99.90
10282;DHT22;5186;59.472;18.048;2023-04-07T02:06:29;3.00;99.90
10282;DHT22;5186;59.472;18.048;2023-04-07T02:08:59;3.00;99.90
10282;DHT22;5186;59.472;18.048;2023-04-07T02:11:26;3.00;99.90
10282;DHT22;5186;59.472;18.048;2023-04-07T02:13:53;3.00;99.90
10282;DHT22;5186;59.472;18.048;2023-04-07T02:16:20;3.00;99.90
10282;DHT22;5186;59.472;18.048;2023-04-07T02:18:47;3.00;99.90
10282;DHT22;5186;59.472;18.048;2023-04-07T02:21:14;3.00;99.90
10282;DHT22;5186;59.472;18.048;2023-04-07T02:23:41;3.00;99.90
10282;DHT22;5186;59.472;18.048;2023-04-07T02:26:06;3.00;99.90
10282;DHT22;5186;59.472;18.048;2023-04-07T02:28:32;3.10;99.90
10282;DHT22;5186;59.472;18.048;2023-04-07T02:30:58;3.00;99.90
10282;DHT22;5186;59.472;18.048;2023-04-07T02:33:23;3.00;99.90
10282;DHT22;5186;59.472;18.048;2023-04-07T02:35:49;3.10;99.90
10282;DHT22;5186;59.472;18.048;2023-04-07T02:38:14;3.10;99.90
10282;DHT22;5186;59.472;18.048;2023-04-07T02:40:40;3.10;99.90
10282;DHT22;5186;59.472;18.048;2023-04-07T02:43:05;3.00;99.90
10282;DHT22;5186;59.472;18.048;2023-04-07T02:45:31;3.10;99.90
10282;DHT22;5186;59.472;18.048;2023-04-07T02:47:57;3.00;99.90
10282;DHT22;5186;59.472;18.048;2023-04-07T02:50:22;3.10;99.90
10282;DHT22;5186;59.472;18.048;2023-04-07T02:52:50;3.10;99.90
10282;DHT22;5186;59.472;18.048;2023-04-07T02:55:16;3.10;99.90
10282;DHT22;5186;59.472;18.048;2023-04-07T02:57:43;3.10;99.90
10282;DHT22;5186;59.472;18.048;2023-04-07T03:00:09;3.10;99.90
10282;DHT22;5186;59.472;18.048;2023-04-07T03:02:34;3.10;99.90
10282;DHT22;5186;59.472;18.048;2023-04-07T03:05:00;3.00;99.90
10282;DHT22;5186;59.472;18.048;2023-04-07T03:07:26;3.00;99.90
10282;DHT22;5186;59.472;18.048;2023-04-07T03:09:52;3.00;99.90
10282;DHT22;5186;59.472;18.048;2023-04-07T03:12:17;3.10;99.90
10282;DHT22;5186;59.472;18.048;2023-04-07T03:14:43;3.10;99.90
10282;DHT22;5186;59.472;18.048;2023-04-07T03:17:08;3.10;99.90
10282;DHT22;5186;59.472;18.048;2023-04-07T03:19:34;3.10;99.90
10282;DHT22;5186;59.472;18.048;2023-04-07T03:21:59;3.00;99.90
10282;DHT22;5186;59.472;18.048;2023-04-07T03:24:25;3.00;99.90
10282;DHT22;5186;59.472;18.048;2023-04-07T03:26:51;3.00;99.90
10282;DHT22;5186;59.472;18.048;2023-04-07T03:29:17;3.00;99.90
10282;DHT22;5186;59.472;18.048;2023-04-07T03:31:43;3.00;99.90
10282;DHT22;5186;59.472;18.048;2023-04-07T03:34:08;3.00;99.90
10282;DHT22;5186;59.472;18.048;2023-04-07T03:36:34;3.00;99.90
10282;DHT22;5186;59.472;18.048;2023-04-07T03:39:00;3.00;99.90
10282;DHT22;5186;59.472;18.048;2023-04-07T03:41:25;3.00;99.90
10282;DHT22;5186;59.472;18.048;2023-04-07T03:43:51;3.00;99.90
10282;DHT22;5186;59.472;18.048;2023-04-07T03:46:18;3.00;99.90
10282;DHT22;5186;59.472;18.048;2023-04-07T03:48:44;3.00;99.90
10282;DHT22;5186;59.472;18.048;2023-04-07T03:51:10;3.00;99.90
10282;DHT22;5186;59.472;18.048;2023-04-07T03:53:36;3.00;99.90
10282;DHT22;5186;59.472;18.048;2023-04-07T03:56:02;3.00;99.90
10282;DHT22;5186;59.472;18.048;2023-04-07T03:58:27;3.00;99.90
10282;DHT22;5186;59.472;18.048;2023-04-07T04:00:53;3.00;99.90
10282;DHT22;5186;59.472;18.048;2023-04-07T04:03:18;3.00;99.90
10282;DHT22;5186;59.472;18.048;2023-04-07T04:05:44;3.00;99.90
10282;DHT22;5186;59.472;18.048;2023-04-07T04:08:10;3.00;99.90
10282;DHT22;5186;59.472;18.048;2023-04-07T04:10:35;3.00;99.90
10282;DHT22;5186;59.472;18.048;2023-04-07T04:13:01;3.00;99.90
10282;DHT22;5186;59.472;18.048;2023-04-07T04:15:28;3.00;99.90
10282;DHT22;5186;59.472;18.048;2023-04-07T04:17:54;3.00;99.90
10282;DHT22;5186;59.472;18.048;2023-04-07T04:20:20;3.00;99.90
10282;DHT22;5186;59.472;18.048;2023-04-07T04:22:46;3.00;99.90
10282;DHT22;5186;59.472;18.048;2023-04-07T04:25:12;3.00;99.90
10282;DHT22;5186;59.472;18.048;2023-04-07T04:27:37;3.00;99.90
10282;DHT22;5186;59.472;18.048;2023-04-07T04:30:03;3.00;99.90
10282;DHT22;5186;59.472;18.048;2023-04-07T04:32:29;3.00;99.90
10282;DHT22;5186;59.472;18.048;2023-04-07T04:34:55;3.00;99.90
10282;DHT22;5186;59.472;18.048;2023-04-07T04:37:20;3.00;99.90
10282;DHT22;5186;59.472;18.048;2023-04-07T04:39:46;3.00;99.90
10282;DHT22;5186;59.472;18.048;2023-04-07T04:42:11;3.00;99.90
10282;DHT22;5186;59.472;18.048;2023-04-07T04:44:37;3.00;99.90
10282;DHT22;5186;59.472;18.048;2023-04-07T04:47:02;3.00;99.90
10282;DHT22;5186;59.472;18.048;2023-04-07T04:49:28;3.00;99.90
10282;DHT22;5186;59.472;18.048;2023-04-07T04:51:54;3.00;99.90
10282;DHT22;5186;59.472;18.048;2023-04-07T04:54:19;3.00;99.90
10282;DHT22;5186;59.472;18.048;2023-04-07T04:56:45;3.00;99.90
10282;DHT22;5186;59.472;18.048;2023-04-07T04:59:10;3.00;99.90
10282;DHT22;5186;59.472;18.048;2023-04-07T05:01:36;3.00;99.90
10282;DHT22;5186;59.472;18.048;2023-04-07T05:04:01;3.00;99.90
10282;DHT22;5186;59.472;18.048;2023-04-07T05:06:27;3.00;99.90
10282;DHT22;5186;59.472;18.048;2023-04-07T05:08:53;3.00;99.90
10282;DHT22;5186;59.472;18.048;2023-04-07T05:11:18;3.00;99.90
10282;DHT22;5186;59.472;18.048;2023-04-07T05:13:46;3.00;99.90
10282;DHT22;5186;59.472;18.048;2023-04-07T05:16:12;3.10;99.90
10282;DHT22;5186;59.472;18.048;2023-04-07T05:18:38;3.10;99.90
10282;DHT22;5186;59.472;18.048;2023-04-07T05:21:03;3.10;99.90
10282;DHT22;5186;59.472;18.048;2023-04-07T05:23:29;3.00;99.90
10282;DHT22;5186;59.472;18.048;2023-04-07T05:25:54;3.10;99.90
10282;DHT22;5186;59.472;18.048;2023-04-07T05:28:21;3.10;99.90
10282;DHT22;5186;59.472;18.048;2023-04-07T05:30:47;3.10;99.90
10282;DHT22;5186;59.472;18.048;2023-04-07T05:33:13;3.10;99.90
10282;DHT22;5186;59.472;18.048;2023-04-07T05:35:38;3.10;99.90
10282;DHT22;5186;59.472;18.048;2023-04-07T05:38:04;3.00;99.90
10282;DHT22;5186;59.472;18.048;2023-04-07T05:40:29;3.00;99.90
10282;DHT22;5186;59.472;18.048;2023-04-07T05:42:55;3.00;99.90
10282;DHT22;5186;59.472;18.048;2023-04-07T05:45:21;3.10;99.90
10282;DHT22;5186;59.472;18.048;2023-04-07T05:47:46;3.10;99.90
10282;DHT22;5186;59.472;18.048;2023-04-07T05:50:15;3.10;99.90
10282;DHT22;5186;59.472;18.048;2023-04-07T05:52:41;3.10;99.90
10282;DHT22;5186;59.472;18.048;2023-04-07T05:55:07;3.10;99.90
10282;DHT22;5186;59.472;18.048;2023-04-07T05:57:32;3.20;99.90
10282;DHT22;5186;59.472;18.048;2023-04-07T05:59:59;3.20;99.90
10282;DHT22;5186;59.472;18.048;2023-04-07T06:02:24;3.20;99.90
10282;DHT22;5186;59.472;18.048;2023-04-07T06:04:50;3.20;99.90
10282;DHT22;5186;59.472;18.048;2023-04-07T06:07:16;3.20;99.90
10282;DHT22;5186;59.472;18.048;2023-04-07T06:09:41;3.20;99.90
10282;DHT22;5186;59.472;18.048;2023-04-07T06:12:07;3.20;99.90
10282;DHT22;5186;59.472;18.048;2023-04-07T06:14:33;3.20;99.90
10282;DHT22;5186;59.472;18.048;2023-04-07T06:16:59;3.20;99.90
10282;DHT22;5186;59.472;18.048;2023-04-07T06:19:25;3.20;99.90
10282;DHT22;5186;59.472;18.048;2023-04-07T06:21:52;3.20;99.90
10282;DHT22;5186;59.472;18.048;2023-04-07T06:24:17;3.30;99.90
10282;DHT22;5186;59.472;18.048;2023-04-07T06:26:43;3.30;99.90
10282;DHT22;5186;59.472;18.048;2023-04-07T06:29:09;3.40;99.90
10282;DHT22;5186;59.472;18.048;2023-04-07T06:31:35;3.40;99.90
10282;DHT22;5186;59.472;18.048;2023-04-07T06:34:01;3.40;99.90
10282;DHT22;5186;59.472;18.048;2023-04-07T06:36:27;3.40;99.90
10282;DHT22;5186;59.472;18.048;2023-04-07T06:38:53;3.40;99.90
10282;DHT22;5186;59.472;18.048;2023-04-07T06:41:19;3.40;99.90
10282;DHT22;5186;59.472;18.048;2023-04-07T06:43:48;3.40;99.90
10282;DHT22;5186;59.472;18.048;2023-04-07T06:46:16;3.40;99.90
10282;DHT22;5186;59.472;18.048;2023-04-07T06:48:41;3.40;99.90
10282;DHT22;5186;59.472;18.048;2023-04-07T06:51:07;3.40;99.90
10282;DHT22;5186;59.472;18.048;2023-04-07T06:53:33;3.40;99.90
10282;DHT22;5186;59.472;18.048;2023-04-07T06:56:11;3.50;99.90
10282;DHT22;5186;59.472;18.048;2023-04-07T06:58:37;3.50;99.90
10282;DHT22;5186;59.472;18.048;2023-04-07T07:01:04;3.50;99.90
10282;DHT22;5186;59.472;18.048;2023-04-07T07:03:30;3.50;99.90
10282;DHT22;5186;59.472;18.048;2023-04-07T07:05:59;3.50;99.90
10282;DHT22;5186;59.472;18.048;2023-04-07T07:08:26;3.40;99.90
10282;DHT22;5186;59.472;18.048;2023-04-07T07:10:52;3.50;99.90
10282;DHT22;5186;59.472;18.048;2023-04-07T07:13:19;3.40;99.90
10282;DHT22;5186;59.472;18.048;2023-04-07T07:15:45;3.50;99.90
10282;DHT22;5186;59.472;18.048;2023-04-07T07:18:11;3.60;99.90
10282;DHT22;5186;59.472;18.048;2023-04-07T07:20:37;3.60;99.90
10282;DHT22;5186;59.472;18.048;2023-04-07T07:23:02;3.60;99.90
10282;DHT22;5186;59.472;18.048;2023-04-07T07:25:28;3.60;99.90
10282;DHT22;5186;59.472;18.048;2023-04-07T07:27:54;3.60;99.90
10282;DHT22;5186;59.472;18.048;2023-04-07T07:30:21;3.70;99.90
10282;DHT22;5186;59.472;18.048;2023-04-07T07:32:47;3.60;99.90
10282;DHT22;5186;59.472;18.048;2023-04-07T07:35:13;3.60;99.90
10282;DHT22;5186;59.472;18.048;2023-04-07T07:37:39;3.70;99.90
10282;DHT22;5186;59.472;18.048;2023-04-07T07:40:05;3.70;99.90
10282;DHT22;5186;59.472;18.048;2023-04-07T07:42:31;3.70;99.90
10282;DHT22;5186;59.472;18.048;2023-04-07T07:44:57;3.70;99.90
10282;DHT22;5186;59.472;18.048;2023-04-07T07:47:22;3.70;99.90
10282;DHT22;5186;59.472;18.048;2023-04-07T07:49:48;3.70;99.90
10282;DHT22;5186;59.472;18.048;2023-04-07T07:52:14;3.70;99.90
10282;DHT22;5186;59.472;18.048;2023-04-07T07:54:40;3.70;99.90
10282;DHT22;5186;59.472;18.048;2023-04-07T07:57:05;3.70;99.90
10282;DHT22;5186;59.472;18.048;2023-04-07T07:59:31;3.70;99.90
10282;DHT22;5186;59.472;18.048;2023-04-07T08:01:57;3.70;99.90
10282;DHT22;5186;59.472;18.048;2023-04-07T08:04:23;3.60;99.90
10282;DHT22;5186;59.472;18.048;2023-04-07T08:06:49;3.70;99.90
10282;DHT22;5186;59.472;18.048;2023-04-07T08:09:19;3.70;99.90
10282;DHT22;5186;59.472;18.048;2023-04-07T08:11:45;3.70;99.90
10282;DHT22;5186;59.472;18.048;2023-04-07T08:14:13;3.80;99.90
10282;DHT22;5186;59.472;18.048;2023-04-07T08:16:38;3.80;99.90
10282;DHT22;5186;59.472;18.048;2023-04-07T08:19:04;3.80;99.90
10282;DHT22;5186;59.472;18.048;2023-04-07T08:21:30;3.80;99.90
10282;DHT22;5186;59.472;18.048;2023-04-07T08:23:56;3.80;99.90
10282;DHT22;5186;59.472;18.048;2023-04-07T08:26:22;3.80;99.90
10282;DHT22;5186;59.472;18.048;2023-04-07T08:28:48;3.80;99.90
10282;DHT22;5186;59.472;18.048;2023-04-07T08:31:16;3.90;99.90
10282;DHT22;5186;59.472;18.048;2023-04-07T08:33:41;3.90;99.90
10282;DHT22;5186;59.472;18.048;2023-04-07T08:36:07;3.90;99.90
10282;DHT22;5186;59.472;18.048;2023-04-07T08:38:33;3.90;99.90
10282;DHT22;5186;59.472;18.048;2023-04-07T08:41:11;3.90;99.90
10282;DHT22;5186;59.472;18.048;2023-04-07T08:43:38;4.00;99.90
10282;DHT22;5186;59.472;18.048;2023-04-07T08:46:04;4.00;99.90
10282;DHT22;5186;59.472;18.048;2023-04-07T08:48:31;4.10;99.90
10282;DHT22;5186;59.472;18.048;2023-04-07T08:51:04;4.00;99.90
10282;DHT22;5186;59.472;18.048;2023-04-07T08:53:48;4.10;99.90
10282;DHT22;5186;59.472;18.048;2023-04-07T08:56:17;4.10;99.90
10282;DHT22;5186;59.472;18.048;2023-04-07T08:58:44;4.10;99.90
10282;DHT22;5186;59.472;18.048;2023-04-07T09:01:09;4.10;99.90
10282;DHT22;5186;59.472;18.048;2023-04-07T09:03:36;4.20;99.90
10282;DHT22;5186;59.472;18.048;2023-04-07T09:06:02;4.20;99.90
10282;DHT22;5186;59.472;18.048;2023-04-07T09:08:28;4.20;99.90
10282;DHT22;5186;59.472;18.048;2023-04-07T09:10:55;4.20;99.90
10282;DHT22;5186;59.472;18.048;2023-04-07T09:13:23;4.20;99.90
10282;DHT22;5186;59.472;18.048;2023-04-07T09:15:48;4.20;99.90
10282;DHT22;5186;59.472;18.048;2023-04-07T09:18:14;4.20;99.90
10282;DHT22;5186;59.472;18.048;2023-04-07T09:21:01;4.20;99.90
10282;DHT22;5186;59.472;18.048;2023-04-07T09:23:31;4.20;99.90
10282;DHT22;5186;59.472;18.048;2023-04-07T09:28:47;4.30;99.90
10282;DHT22;5186;59.472;18.048;2023-04-07T09:31:13;4.30;99.90
10282;DHT22;5186;59.472;18.048;2023-04-07T09:33:39;4.30;99.90
10282;DHT22;5186;59.472;18.048;2023-04-07T09:36:05;4.40;99.90
10282;DHT22;5186;59.472;18.048;2023-04-07T09:38:35;4.30;99.90
10282;DHT22;5186;59.472;18.048;2023-04-07T09:41:13;4.40;99.90
10282;DHT22;5186;59.472;18.048;2023-04-07T09:43:55;4.40;99.90
10282;DHT22;5186;59.472;18.048;2023-04-07T09:46:20;4.40;99.90
10282;DHT22;5186;59.472;18.048;2023-04-07T09:48:46;4.40;99.90
10282;DHT22;5186;59.472;18.048;2023-04-07T09:51:17;4.40;99.90
10282;DHT22;5186;59.472;18.048;2023-04-07T09:53:47;4.40;99.90
10282;DHT22;5186;59.472;18.048;2023-04-07T09:56:18;4.40;99.90
10282;DHT22;5186;59.472;18.048;2023-04-07T09:58:47;4.40;99.90
10282;DHT22;5186;59.472;18.048;2023-04-07T10:01:15;4.30;99.90
10282;DHT22;5186;59.472;18.048;2023-04-07T10:03:44;4.40;99.90
10282;DHT22;5186;59.472;18.048;2023-04-07T10:06:11;4.40;99.90
10282;DHT22;5186;59.472;18.048;2023-04-07T10:08:40;4.40;99.90
10282;DHT22;5186;59.472;18.048;2023-04-07T10:11:06;4.40;99.90
10282;DHT22;5186;59.472;18.048;2023-04-07T10:13:33;4.40;99.90
10282;DHT22;5186;59.472;18.048;2023-04-07T10:16:03;4.40;99.90
10282;DHT22;5186;59.472;18.048;2023-04-07T10:18:30;4.50;99.90
10282;DHT22;5186;59.472;18.048;2023-04-07T10:21:00;4.50;99.90
10282;DHT22;5186;59.472;18.048;2023-04-07T10:26:01;4.50;99.90
10282;DHT22;5186;59.472;18.048;2023-04-07T10:28:29;4.50;99.90
10282;DHT22;5186;59.472;18.048;2023-04-07T10:30:56;4.50;99.90
10282;DHT22;5186;59.472;18.048;2023-04-07T10:33:51;4.40;99.90
10282;DHT22;5186;59.472;18.048;2023-04-07T10:36:19;4.50;99.90
10282;DHT22;5186;59.472;18.048;2023-04-07T10:41:42;4.50;99.90
10282;DHT22;5186;59.472;18.048;2023-04-07T10:44:09;4.60;99.90
10282;DHT22;5186;59.472;18.048;2023-04-07T10:49:14;4.60;99.90
10282;DHT22;5186;59.472;18.048;2023-04-07T10:51:43;4.60;99.90
10282;DHT22;5186;59.472;18.048;2023-04-07T10:54:16;4.60;99.90
10282;DHT22;5186;59.472;18.048;2023-04-07T10:57:13;4.50;99.90
10282;DHT22;5186;59.472;18.048;2023-04-07T10:59:41;4.50;99.90
10282;DHT22;5186;59.472;18.048;2023-04-07T11:04:42;4.60;99.90
10282;DHT22;5186;59.472;18.048;2023-04-07T11:07:08;4.60;99.90
10282;DHT22;5186;59.472;18.048;2023-04-07T11:09:34;4.60;99.90
10282;DHT22;5186;59.472;18.048;2023-04-07T11:12:00;4.60;99.90
10282;DHT22;5186;59.472;18.048;2023-04-07T11:14:27;4.60;99.90
10282;DHT22;5186;59.472;18.048;2023-04-07T11:16:54;4.60;99.90
10282;DHT22;5186;59.472;18.048;2023-04-07T11:19:20;4.60;99.90
10282;DHT22;5186;59.472;18.048;2023-04-07T11:21:45;4.60;99.90
10282;DHT22;5186;59.472;18.048;2023-04-07T11:24:30;4.60;99.90
10282;DHT22;5186;59.472;18.048;2023-04-07T11:26:56;4.70;99.90
10282;DHT22;5186;59.472;18.048;2023-04-07T11:29:29;4.60;99.90
10282;DHT22;5186;59.472;18.048;2023-04-07T11:31:57;4.60;99.90
10282;DHT22;5186;59.472;18.048;2023-04-07T11:34:34;4.70;99.90
10282;DHT22;5186;59.472;18.048;2023-04-07T11:37:24;4.70;99.90
10282;DHT22;5186;59.472;18.048;2023-04-07T11:39:55;4.70;99.90
10282;DHT22;5186;59.472;18.048;2023-04-07T11:42:35;4.70;99.90
10282;DHT22;5186;59.472;18.048;2023-04-07T11:45:01;4.70;99.90
10282;DHT22;5186;59.472;18.048;2023-04-07T11:47:37;4.70;99.90
10282;DHT22;5186;59.472;18.048;2023-04-07T11:50:03;4.70;99.90
10282;DHT22;5186;59.472;18.048;2023-04-07T11:52:48;4.80;99.90
10282;DHT22;5186;59.472;18.048;2023-04-07T11:55:18;4.90;99.90
10282;DHT22;5186;59.472;18.048;2023-04-07T11:57:44;4.80;99.90
10282;DHT22;5186;59.472;18.048;2023-04-07T12:00:11;4.80;99.90
10282;DHT22;5186;59.472;18.048;2023-04-07T12:02:37;4.80;99.90
10282;DHT22;5186;59.472;18.048;2023-04-07T12:05:03;4.80;99.90
10282;DHT22;5186;59.472;18.048;2023-04-07T12:07:29;4.80;99.90
10282;DHT22;5186;59.472;18.048;2023-04-07T12:09:55;4.80;99.90
10282;DHT22;5186;59.472;18.048;2023-04-07T12:12:28;4.90;99.90
10282;DHT22;5186;59.472;18.048;2023-04-07T12:14:55;4.80;99.90
10282;DHT22;5186;59.472;18.048;2023-04-07T12:17:25;4.90;99.90
10282;DHT22;5186;59.472;18.048;2023-04-07T12:19:51;4.90;99.90
10282;DHT22;5186;59.472;18.048;2023-04-07T12:22:18;5.00;99.90
10282;DHT22;5186;59.472;18.048;2023-04-07T12:24:44;5.00;99.90
10282;DHT22;5186;59.472;18.048;2023-04-07T12:27:10;5.00;99.90
10282;DHT22;5186;59.472;18.048;2023-04-07T12:29:36;5.00;99.90
10282;DHT22;5186;59.472;18.048;2023-04-07T12:32:03;5.10;99.90
10282;DHT22;5186;59.472;18.048;2023-04-07T12:34:29;5.10;99.90
10282;DHT22;5186;59.472;18.048;2023-04-07T12:36:54;5.10;99.90
10282;DHT22;5186;59.472;18.048;2023-04-07T12:39:20;5.10;99.90
10282;DHT22;5186;59.472;18.048;2023-04-07T12:41:46;5.10;99.90
10282;DHT22;5186;59.472;18.048;2023-04-07T12:44:13;5.20;99.90
10282;DHT22;5186;59.472;18.048;2023-04-07T12:46:39;5.20;99.90
10282;DHT22;5186;59.472;18.048;2023-04-07T12:49:05;5.30;99.90
10282;DHT22;5186;59.472;18.048;2023-04-07T12:51:31;5.30;99.90
10282;DHT22;5186;59.472;18.048;2023-04-07T12:54:00;5.30;99.90
10282;DHT22;5186;59.472;18.048;2023-04-07T12:56:26;5.40;99.90
10282;DHT22;5186;59.472;18.048;2023-04-07T12:58:53;5.40;99.90
10282;DHT22;5186;59.472;18.048;2023-04-07T13:01:19;5.40;99.90
10282;DHT22;5186;59.472;18.048;2023-04-07T13:03:44;5.40;99.90
10282;DHT22;5186;59.472;18.048;2023-04-07T13:06:10;5.40;99.90
10282;DHT22;5186;59.472;18.048;2023-04-07T13:08:36;5.40;99.90
10282;DHT22;5186;59.472;18.048;2023-04-07T13:11:01;5.50;99.90
10282;DHT22;5186;59.472;18.048;2023-04-07T13:13:28;5.50;99.90
10282;DHT22;5186;59.472;18.048;2023-04-07T13:15:53;5.60;99.90
10282;DHT22;5186;59.472;18.048;2023-04-07T13:18:19;5.60;99.90
10282;DHT22;5186;59.472;18.048;2023-04-07T13:20:46;5.50;99.90
10282;DHT22;5186;59.472;18.048;2023-04-07T13:23:11;5.60;99.90
10282;DHT22;5186;59.472;18.048;2023-04-07T13:25:37;5.60;99.90
10282;DHT22;5186;59.472;18.048;2023-04-07T13:28:03;5.50;99.90
10282;DHT22;5186;59.472;18.048;2023-04-07T13:30:29;5.50;99.90
10282;DHT22;5186;59.472;18.048;2023-04-07T13:32:54;5.50;99.90
10282;DHT22;5186;59.472;18.048;2023-04-07T13:35:20;5.60;99.90
10282;DHT22;5186;59.472;18.048;2023-04-07T13:37:45;5.60;99.90
10282;DHT22;5186;59.472;18.048;2023-04-07T13:40:11;5.70;99.90
10282;DHT22;5186;59.472;18.048;2023-04-07T13:42:37;5.70;99.90
10282;DHT22;5186;59.472;18.048;2023-04-07T13:45:03;5.70;99.90
10282;DHT22;5186;59.472;18.048;2023-04-07T13:47:29;5.80;99.90
10282;DHT22;5186;59.472;18.048;2023-04-07T13:49:59;5.80;99.90
10282;DHT22;5186;59.472;18.048;2023-04-07T13:52:25;5.80;99.90
10282;DHT22;5186;59.472;18.048;2023-04-07T13:54:51;5.80;99.90
10282;DHT22;5186;59.472;18.048;2023-04-07T13:57:17;5.80;99.90
10282;DHT22;5186;59.472;18.048;2023-04-07T13:59:45;5.80;99.90
10282;DHT22;5186;59.472;18.048;2023-04-07T14:02:12;5.80;99.90
10282;DHT22;5186;59.472;18.048;2023-04-07T14:04:38;5.90;99.90
10282;DHT22;5186;59.472;18.048;2023-04-07T14:07:04;5.90;99.90
10282;DHT22;5186;59.472;18.048;2023-04-07T14:09:29;5.90;99.90
10282;DHT22;5186;59.472;18.048;2023-04-07T14:11:55;5.90;99.90
10282;DHT22;5186;59.472;18.048;2023-04-07T14:14:21;6.00;99.90
10282;DHT22;5186;59.472;18.048;2023-04-07T14:16:47;6.00;99.90
10282;DHT22;5186;59.472;18.048;2023-04-07T14:19:19;6.00;99.90
10282;DHT22;5186;59.472;18.048;2023-04-07T14:21:46;6.00;99.90
10282;DHT22;5186;59.472;18.048;2023-04-07T14:24:12;6.00;99.90
10282;DHT22;5186;59.472;18.048;2023-04-07T14:26:38;6.00;99.90
10282;DHT22;5186;59.472;18.048;2023-04-07T14:29:03;6.00;99.90
10282;DHT22;5186;59.472;18.048;2023-04-07T14:31:29;6.00;99.90
10282;DHT22;5186;59.472;18.048;2023-04-07T14:33:54;6.00;99.90
10282;DHT22;5186;59.472;18.048;2023-04-07T14:36:20;6.00;99.90
10282;DHT22;5186;59.472;18.048;2023-04-07T14:38:46;6.00;99.90
10282;DHT22;5186;59.472;18.048;2023-04-07T14:41:11;6.10;99.90
10282;DHT22;5186;59.472;18.048;2023-04-07T14:43:37;6.00;99.90
10282;DHT22;5186;59.472;18.048;2023-04-07T14:46:04;6.10;99.90
10282;DHT22;5186;59.472;18.048;2023-04-07T14:48:30;6.10;99.90
10282;DHT22;5186;59.472;18.048;2023-04-07T14:50:56;6.10;99.90
10282;DHT22;5186;59.472;18.048;2023-04-07T14:53:22;6.00;99.90
10282;DHT22;5186;59.472;18.048;2023-04-07T14:55:48;6.00;99.90
10282;DHT22;5186;59.472;18.048;2023-04-07T14:58:13;5.90;99.90
10282;DHT22;5186;59.472;18.048;2023-04-07T15:00:39;5.90;99.90
10282;DHT22;5186;59.472;18.048;2023-04-07T15:03:05;5.90;99.90
10282;DHT22;5186;59.472;18.048;2023-04-07T15:05:31;5.90;99.90
10282;DHT22;5186;59.472;18.048;2023-04-07T15:07:56;5.90;99.90
10282;DHT22;5186;59.472;18.048;2023-04-07T15:10:23;5.90;99.90
10282;DHT22;5186;59.472;18.048;2023-04-07T15:12:48;5.90;99.90
10282;DHT22;5186;59.472;18.048;2023-04-07T15:15:15;5.90;99.90
10282;DHT22;5186;59.472;18.048;2023-04-07T15:17:41;5.90;99.90
10282;DHT22;5186;59.472;18.048;2023-04-07T15:20:07;5.90;99.90
10282;DHT22;5186;59.472;18.048;2023-04-07T15:22:34;5.90;99.90
10282;DHT22;5186;59.472;18.048;2023-04-07T15:25:00;6.00;99.90
10282;DHT22;5186;59.472;18.048;2023-04-07T15:27:26;6.00;99.90
10282;DHT22;5186;59.472;18.048;2023-04-07T15:29:51;6.00;99.90
10282;DHT22;5186;59.472;18.048;2023-04-07T15:32:17;6.00;99.90
10282;DHT22;5186;59.472;18.048;2023-04-07T15:34:42;5.90;99.90
10282;DHT22;5186;59.472;18.048;2023-04-07T15:37:08;5.90;99.90
10282;DHT22;5186;59.472;18.048;2023-04-07T15:39:34;5.90;99.90
10282;DHT22;5186;59.472;18.048;2023-04-07T15:42:00;5.90;99.90
10282;DHT22;5186;59.472;18.048;2023-04-07T15:44:26;5.90;99.90
10282;DHT22;5186;59.472;18.048;2023-04-07T15:46:51;5.90;99.90
10282;DHT22;5186;59.472;18.048;2023-04-07T15:49:18;5.90;99.90
10282;DHT22;5186;59.472;18.048;2023-04-07T15:51:45;5.90;99.90
10282;DHT22;5186;59.472;18.048;2023-04-07T15:54:11;5.90;99.90
10282;DHT22;5186;59.472;18.048;2023-04-07T15:56:36;5.80;99.90
10282;DHT22;5186;59.472;18.048;2023-04-07T15:59:02;5.80;99.90
10282;DHT22;5186;59.472;18.048;2023-04-07T16:01:27;5.80;99.90
10282;DHT22;5186;59.472;18.048;2023-04-07T16:03:54;5.80;99.90
10282;DHT22;5186;59.472;18.048;2023-04-07T16:06:19;5.80;99.90
10282;DHT22;5186;59.472;18.048;2023-04-07T16:08:45;5.80;99.90